Time;durP1;ratioP1;P1;durP2;ratioP2;P2;SDS_P1;SDS_P2;PMS_P1;PMS_P2;Temp;Humidity;BMP_temperature;BMP_pressure;BME280_temperature;BME280_humidity;BME280_pressure;Samples;Min_cycle;Max_cycle;Signal;HPM_P1;HPM_P2
2022/11/02 00:00:12;;;;;;;8.20;2.00;;;;;;;5.19;100.00;93602.78;2131902;27;20037;-70
2022/11/02 00:01:32;;;;;;;8.77;1.95;;;;;;;5.06;100.00;93606.88;2135803;27;20029;-71
2022/11/02 00:02:33;;;;;;;10.52;2.05;;;;;;;5.18;100.00;93611.88;2132874;27;20034;-71
2022/11/02 00:03:34;;;;;;;13.95;2.30;;;;;;;5.19;100.00;93609.97;2135342;27;20375;-71
2022/11/02 00:04:35;;;;;;;5.05;1.85;;;;;;;5.14;100.00;93615.63;2135780;27;20483;-71
2022/11/02 00:05:36;;;;;;;6.57;1.90;;;;;;;5.05;100.00;93608.00;2135924;27;20022;-70
2022/11/02 00:06:37;;;;;;;12.55;2.30;;;;;;;5.05;100.00;93613.31;2135746;27;20034;-73
2022/11/02 00:07:39;;;;;;;12.02;1.92;;;;;;;5.01;100.00;93613.28;2131698;27;20034;-71
2022/11/02 00:08:40;;;;;;;10.15;2.33;;;;;;;5.14;100.00;93605.78;2135683;27;20087;-72
2022/11/02 00:09:41;;;;;;;9.02;1.90;;;;;;;5.19;100.00;93616.03;2135606;27;20469;-71
2022/11/02 00:10:42;;;;;;;7.70;2.20;;;;;;;5.12;100.00;93609.94;2135821;27;20027;-71
2022/11/02 00:11:42;;;;;;;8.40;1.95;;;;;;;5.37;100.00;93616.16;2135889;27;20019;-71
2022/11/02 00:12:44;;;;;;;7.80;1.90;;;;;;;5.36;100.00;93624.47;2136425;27;20479;-71
2022/11/02 00:13:45;;;;;;;7.68;1.80;;;;;;;5.20;100.00;93625.50;2135403;27;20033;-71
2022/11/02 00:14:46;;;;;;;15.43;2.08;;;;;;;5.15;100.00;93619.78;2135662;27;20064;-71
2022/11/02 00:15:47;;;;;;;10.27;1.77;;;;;;;5.09;100.00;93624.66;2135377;27;20537;-70
2022/11/02 00:16:48;;;;;;;5.78;1.83;;;;;;;5.04;100.00;93630.31;2135735;27;20052;-70
2022/11/02 00:17:54;;;;;;;11.45;2.15;;;;;;;5.06;100.00;93625.41;2134941;27;20026;-70
2022/11/02 00:18:59;;;;;;;7.38;1.58;;;;;;;5.05;100.00;93629.97;2135504;27;20501;-71
2022/11/02 00:20:02;;;;;;;8.43;1.95;;;;;;;4.96;100.00;93634.81;2135414;27;20800;-70
2022/11/02 00:21:04;;;;;;;5.40;2.13;;;;;;;4.95;100.00;93627.97;2131575;27;20409;-70
2022/11/02 00:22:05;;;;;;;10.25;1.80;;;;;;;4.92;100.00;93627.97;2135636;27;20030;-70
2022/11/02 00:23:09;;;;;;;6.72;1.70;;;;;;;4.95;100.00;93632.50;2128272;27;20451;-71
2022/11/02 00:24:11;;;;;;;15.02;2.08;;;;;;;4.94;100.00;93634.41;2126291;27;20030;-70
2022/11/02 00:25:16;;;;;;;11.32;2.58;;;;;;;4.97;100.00;93638.22;2126529;27;20101;-70
2022/11/02 00:26:17;;;;;;;17.58;2.15;;;;;;;4.97;100.00;93638.22;2135730;27;20063;-71
2022/11/02 00:27:18;;;;;;;10.98;2.33;;;;;;;4.99;100.00;93638.59;2135685;27;20019;-70
2022/11/02 00:28:19;;;;;;;10.40;1.88;;;;;;;5.10;100.00;93638.69;2135159;27;20019;-71
2022/11/02 00:29:23;;;;;;;7.45;2.35;;;;;;;5.13;100.00;93640.59;2135632;27;20025;-72
2022/11/02 00:30:24;;;;;;;10.13;2.10;;;;;;;5.21;100.00;93632.31;2135792;27;20030;-71
2022/11/02 00:31:24;;;;;;;17.75;2.10;;;;;;;5.44;100.00;93626.78;2135626;27;20022;-71
2022/11/02 00:32:26;;;;;;;13.60;2.00;;;;;;;5.61;100.00;93635.97;2126589;27;20580;-70
2022/11/02 00:33:27;;;;;;;8.40;1.60;;;;;;;5.89;100.00;93629.31;2118883;27;20551;-70
2022/11/02 00:34:28;;;;;;;9.80;1.73;;;;;;;6.25;100.00;93622.25;2134836;27;20041;-71
2022/11/02 00:35:29;;;;;;;13.68;1.98;;;;;;;6.33;100.00;93626.44;2135546;27;20030;-70
2022/11/02 00:36:33;;;;;;;9.20;2.50;;;;;;;6.34;100.00;93622.66;2135640;27;20031;-70
2022/11/02 00:37:35;;;;;;;12.60;2.58;;;;;;;6.43;100.00;93631.00;2131654;27;20468;-70
2022/11/02 00:38:36;;;;;;;16.27;2.17;;;;;;;6.46;100.00;93624.97;2132273;27;20038;-71
2022/11/02 00:39:36;;;;;;;13.45;1.75;;;;;;;6.78;100.00;93622.34;2135357;27;20338;-71
2022/11/02 00:40:37;;;;;;;6.38;1.95;;;;;;;6.73;100.00;93629.94;2135438;27;20082;-70
2022/11/02 00:41:38;;;;;;;6.72;1.70;;;;;;;6.69;100.00;93627.25;2126065;27;20023;-71
2022/11/02 00:42:39;;;;;;;13.60;2.03;;;;;;;6.87;100.00;93621.97;2126242;27;20031;-70
2022/11/02 00:43:40;;;;;;;6.60;1.60;;;;;;;6.73;100.00;93621.97;2133607;27;20430;-70
2022/11/02 00:44:43;;;;;;;11.63;1.92;;;;;;;6.65;100.00;93621.19;2135266;27;20022;-70
2022/11/02 00:45:44;;;;;;;7.53;1.73;;;;;;;6.53;100.00;93622.28;2135425;27;20029;-70
2022/11/02 00:46:46;;;;;;;7.38;1.35;;;;;;;6.43;100.00;93624.94;2135618;27;20472;-70
2022/11/02 00:47:48;;;;;;;11.65;1.80;;;;;;;6.37;100.00;93619.25;2134543;27;20490;-69
2022/11/02 00:48:49;;;;;;;10.88;2.17;;;;;;;6.35;100.00;93626.81;2125368;27;20031;-70
2022/11/02 00:49:50;;;;;;;9.85;2.08;;;;;;;6.49;100.00;93626.09;2126075;27;20037;-71
2022/11/02 00:50:51;;;;;;;5.43;1.60;;;;;;;6.56;100.00;93626.88;2135283;27;20050;-71
2022/11/02 00:51:52;;;;;;;10.77;1.60;;;;;;;6.49;100.00;93629.50;2135399;27;20079;-70
2022/11/02 00:52:53;;;;;;;9.80;1.63;;;;;;;6.40;100.00;93634.41;2135511;27;20091;-71
2022/11/02 00:53:54;;;;;;;10.57;1.50;;;;;;;6.25;100.00;93633.63;2134402;27;20027;-71
2022/11/02 00:54:55;;;;;;;8.60;1.90;;;;;;;6.23;100.00;93632.47;2135323;27;20457;-70
2022/11/02 00:55:56;;;;;;;13.45;2.03;;;;;;;6.07;100.00;93635.47;2134786;27;20015;-70
2022/11/02 00:56:57;;;;;;;5.07;1.60;;;;;;;6.12;100.00;93639.66;2134919;27;20334;-71
2022/11/02 00:57:58;;;;;;;10.35;2.10;;;;;;;6.08;100.00;93633.56;2126131;27;20752;-70
2022/11/02 00:58:59;;;;;;;11.20;1.80;;;;;;;6.05;100.00;93627.84;2126170;27;20444;-71
2022/11/02 01:00:00;;;;;;;6.18;1.55;;;;;;;5.95;100.00;93633.13;2134132;27;20022;-70
2022/11/02 01:01:05;;;;;;;11.13;2.10;;;;;;;5.86;100.00;93625.50;2135480;27;20819;-70
2022/11/02 01:02:06;;;;;;;5.40;1.60;;;;;;;5.82;100.00;93627.38;2131618;27;20022;-70
2022/11/02 01:03:07;;;;;;;6.05;1.48;;;;;;;5.64;100.00;93626.53;2134963;27;20022;-70
2022/11/02 01:04:08;;;;;;;9.38;1.83;;;;;;;5.68;100.00;93630.72;2135218;27;20066;-71
2022/11/02 01:05:10;;;;;;;9.30;1.80;;;;;;;5.65;100.00;93631.44;2134381;27;20019;-70
2022/11/02 01:06:13;;;;;;;8.80;1.70;;;;;;;5.62;100.00;93621.59;2126226;27;20356;-70
2022/11/02 01:07:14;;;;;;;7.03;1.60;;;;;;;5.55;100.00;93622.31;2126303;27;20045;-70
2022/11/02 01:08:15;;;;;;;7.95;1.30;;;;;;;5.48;100.00;93626.81;2135283;27;20444;-70
2022/11/02 01:09:16;;;;;;;11.60;2.05;;;;;;;5.51;100.00;93626.06;2135230;27;20018;-70
2022/11/02 01:10:18;;;;;;;15.13;1.95;;;;;;;5.44;100.00;93626.03;2134585;27;20043;-70
2022/11/02 01:11:23;;;;;;;12.10;1.73;;;;;;;5.39;100.00;93632.44;2135365;27;20030;-70
2022/11/02 01:12:24;;;;;;;11.25;1.63;;;;;;;5.33;100.00;93627.88;2135195;27;20050;-71
2022/11/02 01:13:25;;;;;;;7.43;1.38;;;;;;;5.36;100.00;93633.19;2134880;27;20027;-70
2022/11/02 01:14:26;;;;;;;8.23;1.50;;;;;;;5.34;100.00;93627.47;2135136;27;20379;-70
2022/11/02 01:15:27;;;;;;;7.47;1.70;;;;;;;5.24;100.00;93633.47;2134067;27;20030;-70
2022/11/02 01:16:28;;;;;;;6.45;1.35;;;;;;;5.28;100.00;93624.44;2135054;27;20057;-71
2022/11/02 01:17:30;;;;;;;12.40;2.03;;;;;;;5.22;100.00;93627.78;2135198;27;20133;-71
2022/11/02 01:18:31;;;;;;;7.78;1.70;;;;;;;5.22;100.00;93628.56;2135502;27;20023;-70
2022/11/02 01:19:32;;;;;;;9.38;1.75;;;;;;;5.24;100.00;93625.53;2130846;27;20022;-71
2022/11/02 01:20:34;;;;;;;6.57;1.63;;;;;;;5.24;100.00;93631.59;2134431;27;20033;-71
2022/11/02 01:21:35;;;;;;;9.60;1.60;;;;;;;5.18;100.00;93621.69;2135596;27;20026;-70
2022/11/02 01:22:36;;;;;;;12.50;2.47;;;;;;;5.23;100.00;93619.47;2135265;27;20079;-71
2022/11/02 01:23:38;;;;;;;9.70;1.42;;;;;;;5.23;100.00;93621.38;2125569;27;20061;-71
2022/11/02 01:24:38;;;;;;;6.10;1.63;;;;;;;5.19;100.00;93626.63;2126104;27;20034;-70
2022/11/02 01:25:45;;;;;;;11.07;1.52;;;;;;;5.22;100.00;93619.81;2124687;27;20031;-72
2022/11/02 01:26:51;;;;;;;9.02;1.60;;;;;;;5.18;100.00;93609.22;2126032;27;20476;-71
2022/11/02 01:27:52;;;;;;;3.38;1.65;;;;;;;5.29;100.00;93603.97;2135157;27;20775;-70
2022/11/02 01:28:53;;;;;;;8.80;1.20;;;;;;;5.33;100.00;93606.66;2125951;27;20031;-71
2022/11/02 01:29:54;;;;;;;6.82;1.48;;;;;;;5.25;100.00;93608.50;2125869;27;20059;-70
2022/11/02 01:30:55;;;;;;;5.88;1.67;;;;;;;5.21;100.00;93611.13;2134913;27;20053;-70
2022/11/02 01:31:56;;;;;;;10.15;1.80;;;;;;;5.14;100.00;93602.38;2135236;27;20030;-71
2022/11/02 01:32:57;;;;;;;5.15;1.80;;;;;;;5.14;100.00;93602.38;2135086;27;20452;-71
2022/11/02 01:33:58;;;;;;;8.18;2.20;;;;;;;5.08;100.00;93607.25;2133967;27;20086;-71
2022/11/02 01:34:59;;;;;;;8.98;1.90;;;;;;;5.03;100.00;93599.66;2135055;27;20106;-70
2022/11/02 01:36:04;;;;;;;8.98;1.77;;;;;;;5.00;100.00;93597.72;2124809;27;20023;-71
2022/11/02 01:37:05;;;;;;;6.38;1.80;;;;;;;5.01;100.00;93589.44;2114525;27;20090;-70
2022/11/02 01:38:06;;;;;;;7.55;2.22;;;;;;;5.05;100.00;93595.50;2134979;27;20022;-72
2022/11/02 01:39:07;;;;;;;11.85;1.98;;;;;;;4.97;100.00;93591.28;2135003;27;20075;-70
2022/11/02 01:40:09;;;;;;;17.33;2.97;;;;;;;5.03;100.00;93595.09;2134900;27;20413;-70
2022/11/02 01:41:10;;;;;;;11.38;2.60;;;;;;;5.04;100.00;93590.56;2135820;27;20033;-71
2022/11/02 01:42:20;;;;;;;12.40;2.17;;;;;;;5.09;100.00;93584.16;2131911;27;20027;-70
2022/11/02 01:43:22;;;;;;;7.87;2.00;;;;;;;5.09;100.00;93584.91;2134690;27;20360;-69
2022/11/02 01:44:28;;;;;;;11.30;2.35;;;;;;;5.05;100.00;93574.31;2134883;27;21017;-72
2022/11/02 01:45:30;;;;;;;11.15;2.22;;;;;;;5.07;100.00;93595.13;2134932;27;20066;-71
2022/11/02 01:46:40;;;;;;;7.40;2.33;;;;;;;5.04;100.00;93572.03;2130675;27;20030;-72
2022/11/02 01:47:47;;;;;;;11.38;2.30;;;;;;;5.06;100.00;93572.44;2133642;27;20030;-72
2022/11/02 01:48:50;;;;;;;5.30;2.03;;;;;;;5.05;100.00;93584.16;2133067;27;20041;-72
2022/11/02 01:50:01;;;;;;;11.13;2.42;;;;;;;5.02;100.00;93584.88;2134925;27;20033;-70
2022/11/02 01:51:09;;;;;;;6.85;2.30;;;;;;;5.02;100.00;93584.88;2129642;27;20022;-71
2022/11/02 01:52:18;;;;;;;11.98;2.38;;;;;;;5.02;100.00;93583.00;2131702;27;20460;-71
2022/11/02 01:53:19;;;;;;;8.82;2.35;;;;;;;4.93;100.00;93585.19;2134617;27;20046;-71
2022/11/02 01:54:28;;;;;;;6.35;1.90;;;;;;;4.97;100.00;93580.69;2134948;27;20033;-72
2022/11/02 01:55:31;;;;;;;8.63;1.90;;;;;;;4.96;100.00;93583.69;2135035;27;20030;-72
2022/11/02 01:56:34;;;;;;;5.80;2.03;;;;;;;4.92;100.00;93588.22;2137527;27;20023;-71
2022/11/02 01:57:36;;;;;;;7.80;2.30;;;;;;;4.84;100.00;93587.41;2134956;27;20023;-70
2022/11/02 01:58:37;;;;;;;8.18;2.17;;;;;;;4.75;100.00;93590.38;2138951;27;20041;-72
2022/11/02 01:59:50;;;;;;;9.90;2.20;;;;;;;4.69;100.00;93597.13;2134945;27;20037;-70
2022/11/02 02:00:53;;;;;;;4.70;1.65;;;;;;;4.67;100.00;93585.38;2133399;27;20029;-71
2022/11/02 02:01:54;;;;;;;9.18;2.30;;;;;;;4.61;100.00;93584.97;2130288;27;20121;-71
2022/11/02 02:03:17;;;;;;;10.20;2.20;;;;;;;4.62;100.00;93581.19;2133862;27;20372;-71
2022/11/02 02:04:18;;;;;;;7.90;1.92;;;;;;;4.52;100.00;93595.84;2132861;27;20029;-70
2022/11/02 02:05:21;;;;;;;5.68;2.40;;;;;;;4.63;100.00;93589.88;2125862;27;20025;-70
2022/11/02 02:06:25;;;;;;;10.68;2.20;;;;;;;4.60;100.00;93593.25;2128915;27;20456;-71
2022/11/02 02:07:26;;;;;;;8.65;2.10;;;;;;;4.54;100.00;93590.19;2121459;27;20170;-71
2022/11/02 02:08:29;;;;;;;11.52;2.22;;;;;;;4.57;100.00;93591.34;2126112;27;20041;-71
2022/11/02 02:09:31;;;;;;;9.88;2.47;;;;;;;4.51;100.00;93588.25;2134838;27;20029;-71
2022/11/02 02:10:33;;;;;;;6.30;2.10;;;;;;;4.43;100.00;93589.31;2134877;27;20041;-71
2022/11/02 02:11:36;;;;;;;6.88;2.00;;;;;;;4.39;100.00;93589.31;2130634;27;20022;-71
2022/11/02 02:12:41;;;;;;;6.75;1.92;;;;;;;4.39;100.00;93589.31;2134148;27;20030;-71
2022/11/02 02:13:42;;;;;;;12.77;1.65;;;;;;;4.35;100.00;93585.13;2125122;27;20030;-71
2022/11/02 02:14:43;;;;;;;8.82;2.13;;;;;;;4.36;100.00;93600.63;2127148;27;20089;-71
2022/11/02 02:16:17;;;;;;;9.05;1.83;;;;;;;4.34;100.00;93597.56;2134677;27;20093;-72
2022/11/02 02:17:26;;;;;;;10.23;2.15;;;;;;;4.35;100.00;93599.09;2129196;27;20545;-71
2022/11/02 02:18:45;;;;;;;10.02;2.22;;;;;;;4.34;100.00;93586.22;2134722;27;20079;-71
2022/11/02 02:19:59;;;;;;;6.00;1.60;;;;;;;4.24;100.00;93585.75;2125836;27;20488;-71
2022/11/02 02:21:21;;;;;;;8.60;1.98;;;;;;;4.19;100.00;93587.97;2134945;27;20522;-76
2022/11/02 02:22:50;;;;;;;6.53;2.13;;;;;;;4.21;100.00;93591.00;2132493;27;20037;-71
2022/11/02 02:24:28;;;;;;;5.45;2.00;;;;;;;4.21;100.00;93593.66;2123590;27;20037;-71
2022/11/02 02:25:47;;;;;;;6.63;1.63;;;;;;;4.25;100.00;93591.81;2130761;27;20337;-71
2022/11/02 02:27:08;;;;;;;3.63;1.83;;;;;;;4.20;100.00;93589.50;2132721;27;20034;-71
2022/11/02 02:28:20;;;;;;;7.10;1.85;;;;;;;4.31;100.00;93584.31;2133610;27;20412;-71
2022/11/02 02:29:54;;;;;;;7.78;1.38;;;;;;;4.26;100.00;93588.06;2134753;27;20034;-71
2022/11/02 02:31:00;;;;;;;7.32;1.50;;;;;;;4.27;100.00;93589.56;2123948;27;20034;-71
2022/11/02 02:32:24;;;;;;;12.70;1.60;;;;;;;4.23;100.00;93594.81;2134581;27;20038;-71
2022/11/02 02:33:34;;;;;;;4.35;1.60;;;;;;;4.23;100.00;93592.19;2124197;27;20033;-71
2022/11/02 02:34:50;;;;;;;11.93;1.92;;;;;;;4.28;100.00;93593.72;2130801;27;20421;-71
2022/11/02 02:36:01;;;;;;;10.48;1.98;;;;;;;4.31;100.00;93592.25;2134682;27;20061;-71
2022/11/02 02:37:09;;;;;;;8.20;1.60;;;;;;;4.32;100.00;93585.84;2130495;27;20027;-70
2022/11/02 02:38:18;;;;;;;4.35;1.85;;;;;;;4.33;100.00;93579.41;2133941;27;20046;-71
2022/11/02 02:39:25;;;;;;;9.48;1.70;;;;;;;4.30;100.00;93578.25;2134664;27;20113;-71
2022/11/02 02:40:32;;;;;;;7.85;2.13;;;;;;;4.31;100.00;93585.06;2134688;27;20097;-71
2022/11/02 02:41:40;;;;;;;6.95;1.52;;;;;;;4.33;100.00;93580.16;2134930;27;20373;-72
2022/11/02 02:43:27;;;;;;;32.80;2.92;;;;;;;4.36;100.00;93579.44;2134716;27;20031;-70
2022/11/02 02:44:34;;;;;;;9.32;1.73;;;;;;;4.35;100.00;93583.22;2121221;27;20035;-70
2022/11/02 02:45:41;;;;;;;4.93;1.65;;;;;;;4.38;100.00;93576.44;2130980;27;20114;-71
2022/11/02 02:46:48;;;;;;;8.55;1.80;;;;;;;4.43;100.00;93578.75;2134787;27;20029;-71
2022/11/02 02:47:58;;;;;;;6.70;1.90;;;;;;;4.44;100.00;93575.00;2136769;27;20033;-71
2022/11/02 02:49:00;;;;;;;7.63;1.80;;;;;;;4.53;100.00;93583.38;2131568;27;20022;-71
2022/11/02 02:50:15;;;;;;;10.93;2.50;;;;;;;4.46;100.00;93578.78;2134652;27;20034;-71
2022/11/02 02:51:24;;;;;;;10.65;2.00;;;;;;;4.47;100.00;93587.47;2132307;27;20021;-69
2022/11/02 02:52:27;;;;;;;15.32;2.25;;;;;;;4.57;100.00;93583.41;2134697;27;20025;-71
2022/11/02 02:53:43;;;;;;;6.43;2.03;;;;;;;4.55;100.00;93579.22;2134433;27;20034;-70
2022/11/02 02:54:46;;;;;;;13.27;2.05;;;;;;;4.49;100.00;93575.41;2131819;27;20479;-70
2022/11/02 02:55:49;;;;;;;6.55;2.00;;;;;;;4.45;100.00;93581.78;2134559;27;20033;-70
2022/11/02 02:56:55;;;;;;;4.18;1.75;;;;;;;4.58;100.00;93583.03;2125309;27;20113;-70
2022/11/02 02:57:59;;;;;;;6.38;1.80;;;;;;;4.57;100.00;93583.41;2126383;27;20035;-70
2022/11/02 02:59:04;;;;;;;7.75;1.70;;;;;;;4.49;100.00;93578.06;2134268;27;20464;-71
2022/11/02 03:00:12;;;;;;;6.50;1.63;;;;;;;4.42;100.00;93572.69;2133624;27;20026;-72
2022/11/02 03:01:15;;;;;;;5.80;2.05;;;;;;;4.45;100.00;93581.78;2134643;27;20034;-71
2022/11/02 03:02:36;;;;;;;11.18;2.13;;;;;;;4.36;100.00;93578.69;2132771;27;20505;-70
2022/11/02 03:03:40;;;;;;;8.13;1.65;;;;;;;4.39;100.00;93578.72;2130856;27;20125;-70
2022/11/02 03:04:41;;;;;;;8.35;1.95;;;;;;;4.45;100.00;93577.25;2131839;27;20197;-72
2022/11/02 03:05:42;;;;;;;5.85;2.15;;;;;;;4.39;100.00;93584.03;2137896;27;20022;-70
2022/11/02 03:06:49;;;;;;;10.52;2.08;;;;;;;4.33;100.00;93579.41;2134979;27;20080;-71
2022/11/02 03:07:51;;;;;;;6.25;2.03;;;;;;;4.25;100.00;93584.63;2137276;27;20022;-70
2022/11/02 03:09:11;;;;;;;3.95;1.67;;;;;;;4.26;100.00;93580.13;2134656;27;20129;-71
2022/11/02 03:10:32;;;;;;;6.32;2.00;;;;;;;4.16;100.00;93584.16;2124311;27;20102;-72
2022/11/02 03:11:41;;;;;;;6.80;1.80;;;;;;;4.21;100.00;93580.41;2130483;27;20475;-70
2022/11/02 03:13:11;;;;;;;5.60;1.73;;;;;;;4.19;100.00;93578.16;2134720;27;20081;-71
2022/11/02 03:14:19;;;;;;;;;;;;;;;4.12;100.00;93582.59;2091565;28;20040;-70
2022/11/02 03:15:35;;;;;;;11.93;2.40;;;;;;;4.17;100.00;93585.69;2129732;27;19919;-70
2022/11/02 03:16:49;;;;;;;7.75;1.90;;;;;;;4.22;100.00;93588.00;2130589;27;20149;-72
2022/11/02 03:17:50;;;;;;;3.58;1.70;;;;;;;4.13;100.00;93584.91;2134568;27;20493;-70
2022/11/02 03:19:16;;;;;;;6.93;1.70;;;;;;;4.16;100.00;93583.41;2134476;27;20099;-71
2022/11/02 03:20:32;;;;;;;7.90;2.08;;;;;;;4.18;100.00;93578.53;2136410;27;20041;-71
2022/11/02 03:21:42;;;;;;;7.78;1.90;;;;;;;4.08;100.00;93585.22;2132013;27;20038;-70
2022/11/02 03:22:55;;;;;;;3.88;1.73;;;;;;;4.21;100.00;93585.72;2136264;27;20026;-70
2022/11/02 03:24:12;;;;;;;5.30;2.20;;;;;;;4.15;100.00;93580.00;2135731;27;20117;-71
2022/11/02 03:25:17;;;;;;;6.95;2.45;;;;;;;4.10;100.00;93582.97;2132436;27;20025;-71
2022/11/02 03:26:51;;;;;;;3.35;2.08;;;;;;;4.04;100.00;93579.91;2135997;27;20732;-70
2022/11/02 03:28:11;;;;;;;7.75;1.95;;;;;;;3.97;100.00;93587.75;2136199;27;20069;-69
2022/11/02 03:29:26;;;;;;;6.75;1.98;;;;;;;3.96;100.00;93578.31;2133157;27;20363;-70
2022/11/02 03:30:32;;;;;;;6.20;1.80;;;;;;;3.95;100.00;93582.06;2135389;27;20027;-71
2022/11/02 03:31:53;;;;;;;5.05;2.00;;;;;;;3.89;100.00;93580.84;2131838;27;20573;-69
2022/11/02 03:33:31;;;;;;;10.93;2.88;;;;;;;3.86;100.00;93584.22;2136122;27;20464;-70
2022/11/02 03:34:52;;;;;;;5.68;1.45;;;;;;;3.83;100.00;93590.25;2127049;27;20090;-70
2022/11/02 03:36:02;;;;;;;5.45;1.48;;;;;;;3.85;100.00;93592.53;2131118;27;20588;-70
2022/11/02 03:37:14;;;;;;;5.85;1.88;;;;;;;3.84;100.00;93586.47;2131792;27;20058;-70
2022/11/02 03:38:22;;;;;;;7.15;1.77;;;;;;;3.78;100.00;93586.03;2136003;27;20417;-71
2022/11/02 03:39:34;;;;;;;7.68;2.17;;;;;;;3.80;100.00;93585.66;2135833;27;20503;-70
2022/11/02 03:40:42;;;;;;;6.82;2.10;;;;;;;3.79;100.00;93584.91;2132087;27;20026;-72
2022/11/02 03:41:47;;;;;;;7.57;2.15;;;;;;;3.81;100.00;93584.53;2133440;27;20037;-71
2022/11/02 03:42:49;;;;;;;7.60;1.73;;;;;;;3.79;100.00;93586.81;2135853;27;20026;-71
2022/11/02 03:43:57;;;;;;;3.63;1.50;;;;;;;3.83;100.00;93582.31;2135477;27;20523;-71
2022/11/02 03:45:08;;;;;;;4.20;1.67;;;;;;;3.82;100.00;93590.59;2136011;27;20034;-70
2022/11/02 03:46:10;;;;;;;7.60;2.08;;;;;;;3.81;100.00;93589.84;2131902;27;20023;-70
2022/11/02 03:47:17;;;;;;;4.97;1.65;;;;;;;3.79;100.00;93592.84;2136048;27;20022;-70
2022/11/02 03:48:20;;;;;;;3.00;1.60;;;;;;;3.77;100.00;93589.78;2136055;27;20026;-70
2022/11/02 03:49:23;;;;;;;8.55;1.70;;;;;;;3.76;100.00;93590.91;2135925;27;20062;-71
2022/11/02 03:50:26;;;;;;;6.38;1.90;;;;;;;3.65;100.00;93589.28;2135967;27;20041;-71
2022/11/02 03:51:31;;;;;;;4.53;1.38;;;;;;;3.72;100.00;93597.28;2132420;27;20038;-70
2022/11/02 03:52:38;;;;;;;4.38;2.25;;;;;;;3.62;100.00;93593.41;2135848;27;20015;-70
2022/11/02 03:54:05;;;;;;;5.15;2.10;;;;;;;3.57;100.00;93587.66;2132189;27;20379;-70
2022/11/02 03:55:11;;;;;;;7.90;1.65;;;;;;;3.62;100.00;93587.34;2132078;27;20033;-71
2022/11/02 03:56:21;;;;;;;4.72;1.88;;;;;;;3.70;100.00;93600.28;2135821;27;20030;-71
2022/11/02 03:57:34;;;;;;;8.00;1.90;;;;;;;3.66;100.00;93602.13;2135761;27;20062;-71
2022/11/02 03:58:35;;;;;;;10.05;3.05;;;;;;;3.66;100.00;93594.19;2131988;27;20037;-71
2022/11/02 03:59:36;;;;;;;11.05;2.90;;;;;;;3.68;100.00;93591.19;2135740;27;20054;-71
2022/11/02 04:00:46;;;;;;;12.13;3.35;;;;;;;3.64;100.00;93593.03;2136020;27;20057;-71
2022/11/02 04:01:50;;;;;;;13.65;2.72;;;;;;;3.65;100.00;93597.97;2133763;27;20499;-72
2022/11/02 04:02:57;;;;;;;10.48;2.75;;;;;;;3.52;100.00;93596.69;2134088;27;20044;-71
2022/11/02 04:03:58;;;;;;;8.35;2.45;;;;;;;3.50;100.00;93597.00;2135466;27;20037;-70
2022/11/02 04:04:59;;;;;;;4.88;2.28;;;;;;;3.44;100.00;93600.34;2135696;27;20065;-71
2022/11/02 04:06:00;;;;;;;11.00;2.80;;;;;;;3.48;100.00;93601.16;2135880;27;20449;-71
2022/11/02 04:07:01;;;;;;;7.80;2.60;;;;;;;3.52;100.00;93589.50;2125601;27;20080;-70
2022/11/02 04:08:21;;;;;;;16.38;2.55;;;;;;;3.47;100.00;93595.09;2130648;27;20688;-71
2022/11/02 04:09:22;;;;;;;7.05;2.30;;;;;;;3.47;100.00;93597.75;2134131;27;20476;-71
2022/11/02 04:10:23;;;;;;;4.78;1.95;;;;;;;3.50;100.00;93601.53;2135902;27;20046;-71
2022/11/02 04:15:23;;;;;;;;;;;;;;;3.38;100.00;93602.53;2136104;27;20432;-70
2022/11/02 04:16:27;;;;;;;6.03;1.77;;;;;;;3.39;100.00;93609.34;2135489;27;19922;-71
2022/11/02 04:20:08;;;;;;;7.05;2.30;;;;;;;3.32;100.00;93603.97;2131912;27;20058;-70
2022/11/02 04:21:09;;;;;;;8.65;2.13;;;;;;;3.35;100.00;93611.19;2135979;27;20060;-70
2022/11/02 04:26:08;;;;;;;12.25;2.50;;;;;;;3.52;100.00;93596.69;2135795;27;20147;-71
2022/11/02 04:27:09;;;;;;;6.68;2.38;;;;;;;3.46;100.00;93600.72;2135697;27;20517;-72
2022/11/02 04:28:10;;;;;;;13.55;2.95;;;;;;;3.50;100.00;93609.47;2125672;27;20030;-70
2022/11/02 04:29:11;;;;;;;7.20;2.42;;;;;;;3.66;100.00;93604.00;2126343;27;20023;-70
2022/11/02 04:30:14;;;;;;;11.15;2.50;;;;;;;3.57;100.00;93606.16;2134993;27;20023;-71
2022/11/02 04:31:15;;;;;;;6.28;2.15;;;;;;;3.55;100.00;93598.59;2126428;27;20031;-70
2022/11/02 04:33:31;;;;;;;11.07;2.15;;;;;;;3.65;100.00;93602.50;2118070;27;20107;-71
2022/11/02 04:33:37;;;;;;;13.18;2.65;;;;;;;3.62;100.00;93603.22;2125428;27;20022;-71
2022/11/02 04:34:38;;;;;;;5.72;1.83;;;;;;;3.62;100.00;93609.25;2135509;27;20026;-70
2022/11/02 04:35:39;;;;;;;10.40;2.30;;;;;;;3.62;100.00;93611.13;2135607;27;20041;-70
2022/11/02 04:36:40;;;;;;;5.63;1.92;;;;;;;3.59;100.00;93609.22;2135607;27;20371;-70
2022/11/02 04:39:02;;;;;;;7.85;2.13;;;;;;;3.83;100.00;93608.00;2135409;27;20030;-71
2022/11/02 04:40:03;;;;;;;16.13;2.53;;;;;;;3.88;100.00;93618.25;2135414;27;20019;-70
2022/11/02 04:42:24;;;;;;;8.55;3.15;;;;;;;3.81;100.00;93608.34;2135564;27;20038;-71
2022/11/02 04:43:25;;;;;;;11.93;2.05;;;;;;;3.98;100.00;93620.25;2134452;27;20392;-70
2022/11/02 04:44:25;;;;;;;9.10;2.55;;;;;;;3.94;100.00;93612.25;2135443;27;20488;-70
2022/11/02 04:45:26;;;;;;;20.15;3.85;;;;;;;4.26;100.00;93612.63;2126160;27;20074;-71
2022/11/02 04:46:30;;;;;;;10.77;2.15;;;;;;;4.45;100.00;93614.31;2126252;27;20121;-70
2022/11/02 04:47:31;;;;;;;18.73;2.97;;;;;;;4.41;100.00;93610.88;2136363;27;20026;-70
2022/11/02 04:48:33;;;;;;;10.30;2.30;;;;;;;4.34;100.00;93610.03;2133169;27;20018;-70
2022/11/02 04:49:34;;;;;;;20.23;3.00;;;;;;;4.36;100.00;93605.91;2131418;27;20037;-70
2022/11/02 04:50:36;;;;;;;10.32;2.20;;;;;;;4.43;100.00;93611.25;2134664;27;20041;-69
2022/11/02 04:51:39;;;;;;;14.30;1.92;;;;;;;4.43;100.00;93615.78;2135440;27;20030;-70
2022/11/02 04:52:40;;;;;;;10.13;1.98;;;;;;;4.34;100.00;93610.03;2126319;27;20159;-70
2022/11/02 04:53:41;;;;;;;11.15;2.20;;;;;;;4.34;100.00;93613.44;2125016;27;20034;-70
2022/11/02 04:54:42;;;;;;;13.75;2.10;;;;;;;4.36;100.00;93615.75;2134990;27;20372;-70
2022/11/02 04:55:45;;;;;;;11.98;2.17;;;;;;;4.35;100.00;93611.56;2135313;27;20022;-70
2022/11/02 04:56:46;;;;;;;11.77;2.25;;;;;;;4.34;100.00;93620.63;2135279;27;20041;-69
2022/11/02 04:57:47;;;;;;;17.23;2.45;;;;;;;4.39;100.00;93612.34;2135315;27;20026;-70
2022/11/02 04:58:53;;;;;;;10.95;1.77;;;;;;;4.36;100.00;93621.78;2134518;27;20474;-70
2022/11/02 04:59:54;;;;;;;12.77;2.13;;;;;;;4.49;100.00;93625.69;2134079;27;20023;-70
2022/11/02 05:00:55;;;;;;;11.50;2.20;;;;;;;4.66;100.00;93619.03;2135276;27;20057;-69
2022/11/02 05:01:56;;;;;;;12.73;2.33;;;;;;;4.66;100.00;93618.28;2135501;27;20015;-70
2022/11/02 05:02:57;;;;;;;13.60;2.03;;;;;;;4.57;100.00;93631.81;2135672;27;20212;-70
2022/11/02 05:03:58;;;;;;;11.38;2.17;;;;;;;4.55;100.00;93624.22;2133867;27;20079;-70
2022/11/02 05:04:59;;;;;;;16.63;2.20;;;;;;;4.52;100.00;93626.84;2135503;27;20027;-69
2022/11/02 05:06:02;;;;;;;10.10;1.60;;;;;;;4.52;100.00;93632.91;2135505;27;20571;-69
2022/11/02 05:07:06;;;;;;;11.00;2.10;;;;;;;4.55;100.00;93629.53;2131113;27;20109;-71
2022/11/02 05:08:07;;;;;;;13.35;2.03;;;;;;;4.59;100.00;93623.50;2135274;27;20463;-70
2022/11/02 05:09:09;;;;;;;14.05;2.75;;;;;;;4.99;100.00;93628.75;2125981;27;20468;-72
2022/11/02 05:10:10;;;;;;;13.80;2.20;;;;;;;4.91;100.00;93627.19;2125418;27;20026;-71
2022/11/02 05:11:12;;;;;;;15.32;2.20;;;;;;;4.75;100.00;93634.63;2132132;27;20023;-71
2022/11/02 05:12:13;;;;;;;11.65;1.95;;;;;;;4.68;100.00;93634.56;2134914;27;20026;-72
2022/11/02 05:13:15;;;;;;;14.90;3.10;;;;;;;4.70;100.00;93635.72;2135011;27;20026;-72
2022/11/02 05:14:16;;;;;;;16.02;2.72;;;;;;;4.69;100.00;93631.53;2135101;27;20050;-70
2022/11/02 05:15:17;;;;;;;10.38;2.47;;;;;;;4.68;100.00;93635.31;2134626;27;20448;-70
2022/11/02 05:16:18;;;;;;;11.95;2.55;;;;;;;4.64;100.00;93641.72;2134797;27;20086;-70
2022/11/02 05:17:19;;;;;;;11.23;2.58;;;;;;;4.65;100.00;93633.38;2135094;27;20026;-70
2022/11/02 05:18:20;;;;;;;8.05;2.17;;;;;;;4.71;100.00;93628.53;2135238;27;20026;-70
2022/11/02 05:19:21;;;;;;;8.23;2.50;;;;;;;4.73;100.00;93624.38;2135072;27;20022;-70
2022/11/02 05:20:22;;;;;;;9.55;1.92;;;;;;;4.58;100.00;93633.34;2131722;27;20023;-70